Latest Coastal Weather Observations for Parndana

IDS60701

Issued at 1:01 am CST Thursday 5 May 2016 (issued every 10 minutes, with the page automatically refreshed every 10 minutes)

About coastal observations | Map of coastal stations | Coastal observations for SA | Marine services | Other Formats
Station Details ID: 022843 Name: PARNDANA CFS AWS Lat: -35.79 Lon: 137.25 Height: 165.0 m
Data from the previous 72 hours. | See also: Recent months at Parndana
Date/Time
CST
Temp

°C
Wind Pressure Rain
since 9am
mm
Weather Cloud Vis
km
Sea
Height
m
Swell
Dir
 
Speed
knots
Gust
knots
hPa Trend Height
m
Period
s
Dir
05/01:00am 14.1 NNW 11 16 - - 0.8 - - - - - - -
05/12:30am 14.6 NNW 11 16 - - 0.8 - - - - - - -
05/12:00am 14.8 NW 12 16 - - 0.8 Recent precip. - - - - - -
 
Date/Time
CST
Temp

°C
Wind Pressure Rain
since 9am
mm
Weather Cloud Vis
km
Sea
Height
m
Swell
Dir
 
Speed
knots
Gust
knots
hPa Trend Height
m
Period
s
Dir
04/11:30pm 14.8 NNW 10 14 - - 0.4 - - - - - - -
04/11:00pm 14.8 NNW 11 16 - - 0.4 - - - - - - -
04/10:30pm 14.8 NNW 12 18 - - 0.4 - - - - - - -
04/10:00pm 14.7 NNW 13 19 - - 0.4 - - - - - - -
04/09:30pm 14.8 NW 13 20 - - 0.4 - - - - - - -
04/09:00pm 14.9 NW 14 20 - - 0.4 - - - - - - -
04/08:30pm 14.9 NW 14 22 - - 0.4 - - - - - - -
04/08:00pm 14.8 NW 13 18 - - 0.4 - - - - - - -
04/07:30pm 14.0 NW 10 14 - - 0.4 - - - - - - -
04/07:00pm 14.2 NW 12 17 - - 0.4 - - - - - - -
04/06:30pm 14.3 NW 13 19 - - 0.4 - - - - - - -
04/06:00pm 14.4 NW 11 16 - - 0.4 - - - - - - -
04/05:30pm 14.1 NW 11 15 - - 0.4 - - - - - - -
04/05:00pm 14.4 NNW 13 20 - - 0.4 - - - - - - -
04/04:30pm 14.6 NNW 11 16 - - 0.4 - - - - - - -
04/04:00pm 14.4 NNW 13 17 - - 0.4 - - - - - - -
04/03:30pm 14.3 NW 16 21 - - 0.4 - - - - - - -
04/03:00pm 14.7 NNW 15 21 - - 0.4 Rain - - - - - -
04/02:30pm 14.6 NW 13 19 - - 0.2 - - - - - - -
04/02:00pm 15.9 NW 16 23 - - 0.2 - - - - - - -
04/01:30pm 15.8 NW 15 22 - - 0.2 - - - - - - -
04/01:00pm 15.2 NW 14 19 - - 0.2 - - - - - - -
04/12:30pm 14.7 NW 10 15 - - 0.0 - - - - - - -
04/12:00pm 13.6 WNW 14 23 - - 0.0 - - - - - - -
04/11:30am 15.6 NW 11 15 - - 0.0 - - - - - - -
04/11:00am 14.8 NW 11 15 - - 0.0 - - - - - - -
04/10:45am 14.9 NW 15 21 - - 0.0 - - - - - - -
04/10:30am 14.8 WNW 7 10 - - 0.0 - - - - - - -
04/10:00am 14.7 WNW 9 14 - - 0.0 - - - - - - -
04/09:30am 14.7 NW 6 9 - - 0.0 - - - - - - -
04/09:00am 13.1 NW 5 6 - - 0.8 - - - - - - -
04/08:30am 12.0 NW 5 7 - - 0.8 - - - - - - -
04/08:00am 11.1 NW 5 6 - - 0.8 - - - - - - -
04/07:30am 10.6 WNW 5 6 - - 0.8 - - - - - - -
04/07:00am 10.0 WNW 6 6 - - 0.8 - - - - - - -
04/06:30am 9.3 NW 5 6 - - 0.8 - - - - - - -
04/06:00am 9.4 WNW 5 5 - - 0.8 - - - - - - -
04/05:30am 8.6 WNW 5 6 - - 0.8 - - - - - - -
04/05:00am 7.5 WNW 6 7 - - 0.8 - - - - - - -
04/04:30am 7.8 WNW 6 7 - - 0.8 - - - - - - -
04/04:00am 8.0 WNW 6 7 - - 0.8 - - - - - - -
04/03:30am 8.2 W 6 7 - - 0.8 - - - - - - -
04/03:00am 9.3 WSW 6 7 - - 0.8 - - - - - - -
04/02:30am 10.2 WSW 7 11 - - 0.8 - - - - - - -
04/02:00am 9.3 W 7 8 - - 0.8 - - - - - - -
04/01:30am 10.4 W 8 11 - - 0.8 - - - - - - -
04/01:00am 10.6 W 9 11 - - 0.8 - - - - - - -
04/12:30am 10.5 WNW 6 8 - - 0.8 - - - - - - -
04/12:00am 10.6 W 6 8 - - 0.8 - - - - - - -
 
Date/Time
CST
Temp

°C
Wind Pressure Rain
since 9am
mm
Weather Cloud Vis
km
Sea
Height
m
Swell
Dir
 
Speed
knots
Gust
knots
hPa Trend Height
m
Period
s
Dir
03/11:30pm 11.0 WSW 7 11 - - 0.8 - - - - - - -
03/11:00pm 10.9 W 8 10 - - 0.8 - - - - - - -
03/10:30pm 10.5 WNW 5 6 - - 0.8 - - - - - - -
03/10:00pm 10.3 W 6 7 - - 0.8 - - - - - - -
03/09:30pm 10.2 WNW 6 7 - - 0.8 - - - - - - -
03/09:00pm 10.1 W 7 9 - - 0.8 - - - - - - -
03/08:30pm 9.1 W 6 6 - - 0.8 - - - - - - -
03/08:00pm 10.3 W 7 8 - - 0.8 - - - - - - -
03/07:30pm 11.4 W 7 10 - - 0.8 - - - - - - -
03/07:00pm 11.5 WSW 7 10 - - 0.8 - - - - - - -
03/06:30pm 10.2 W 5 6 - - 0.8 - - - - - - -
03/06:00pm 11.6 W 8 12 - - 0.8 - - - - - - -
03/05:30pm 12.6 W 10 13 - - 0.8 - - - - - - -
03/05:00pm 13.5 WSW 14 20 - - 0.8 - - - - - - -
03/04:30pm 14.1 WSW 14 20 - - 0.8 - - - - - - -
03/04:00pm 14.7 WSW 15 23 - - 0.8 - - - - - - -
03/03:32pm 14.3 WSW 19 29 - - 0.8 - - - - - - -
03/03:30pm 14.3 WSW 19 26 - - 0.8 - - - - - - -
03/03:00pm 15.0 WSW 20 26 - - 0.8 - - - - - - -
03/02:36pm 15.1 WSW 17 27 - - 0.8 - - - - - - -
03/02:30pm 14.5 WSW 15 25 - - 0.8 - - - - - - -
03/02:00pm 13.8 WSW 13 19 - - 0.8 - - - - - - -
03/01:30pm 12.9 WSW 19 27 - - 0.6 - - - - - - -
03/01:00pm 13.5 WSW 16 22 - - 0.6 - - - - - - -
03/12:30pm 13.8 WSW 14 19 - - 0.6 - - - - - - -
03/12:18pm 13.6 WSW 15 25 - - 0.6 - - - - - - -
03/12:00pm 14.5 WSW 13 19 - - 0.6 Recent precip. - - - - - -
03/11:39am 13.8 W 17 27 - - 0.4 - - - - - - -
03/11:30am 14.0 W 15 22 - - 0.2 - - - - - - -
03/11:00am 14.3 WSW 12 20 - - 0.2 - - - - - - -
03/10:30am 14.0 WSW 13 19 - - 0.2 - - - - - - -
03/10:00am 14.2 W 20 34 - - 0.0 - - - - - - -
03/09:58am 14.8 W 20 34 - - 0.0 - - - - - - -
03/09:38am 16.2 W 16 27 - - 0.0 - - - - - - -
03/09:30am 16.5 W 16 21 - - 0.0 - - - - - - -
03/09:04am 15.9 W 18 28 - - 0.0 - - - - - - -
03/09:00am 15.8 W 20 28 - - 8.8 - - - - - - -
03/08:55am 15.8 W 18 28 - - 8.8 - - - - - - -
03/08:30am 15.3 W 21 30 - - 8.8 - - - - - - -
03/08:11am 15.0 W 20 32 - - 8.8 - - - - - - -
03/08:00am 14.8 W 21 31 - - 8.8 - - - - - - -
03/07:31am 14.7 W 22 33 - - 8.8 - - - - - - -
03/07:30am 14.8 W 23 33 - - 8.8 - - - - - - -
03/07:01am 15.1 WNW 20 34 - - 8.8 - - - - - - -
03/07:00am 15.1 WNW 19 25 - - 8.8 - - - - - - -
03/06:30am 15.1 WNW 19 27 - - 8.8 - - - - - - -
03/06:02am 15.4 WNW 22 34 - - 8.6 - - - - - - -
03/06:00am 15.4 WNW 21 28 - - 8.6 Recent precip. - - - - - -
03/05:43am 15.7 WNW 21 31 - - 8.4 - - - - - - -
03/05:30am 15.6 NW 21 31 - - 8.4 - - - - - - -
03/05:01am 15.8 WNW 22 33 - - 7.8 - - - - - - -
03/05:00am 15.8 WNW 23 33 - - 7.8 - - - - - - -
03/04:30am 15.4 WNW 22 33 - - 7.6 - - - - - - -
03/04:20am 15.4 NW 23 36 - - 7.6 - - - - - - -
03/04:16am 15.5 WNW 21 36 - - 7.4 - - - - - - -
03/04:00am 15.3 NW 18 30 - - 7.2 - - - - - - -
03/03:47am 15.2 NW 20 32 - - 7.0 - - - - - - -
03/03:30am 15.1 NW 21 30 - - 7.0 - - - - - - -
03/03:02am 15.1 NW 24 35 - - 7.0 - - - - - - -
03/03:00am 15.1 NW 23 32 - - 7.0 - - - - - - -
03/02:33am 15.6 NW 21 32 - - 7.0 - - - - - - -
03/02:30am 15.6 NW 20 28 - - 7.0 - - - - - - -
03/02:00am 15.3 WNW 23 33 - - 7.0 - - - - - - -
03/01:45am 15.4 NW 23 33 - - 7.0 - - - - - - -
03/01:30am 15.7 NW 22 32 - - 7.0 - - - - - - -
03/01:08am 15.7 NW 21 31 - - 7.0 - - - - - - -
03/01:00am 15.8 NW 19 28 - - 7.0 - - - - - - -
03/12:38am 15.8 NW 21 31 - - 7.0 - - - - - - -
03/12:30am 15.8 NW 20 29 - - 7.0 - - - - - - -
03/12:00am 15.8 NW 22 33 - - 7.0 - - - - - - -
 
Date/Time
CST
Temp

°C
Wind Pressure Rain
since 9am
mm
Weather Cloud Vis
km
Sea
Height
m
Swell
Dir
 
Speed
knots
Gust
knots
hPa Trend Height
m
Period
s
Dir
02/11:58pm 15.7 NW 21 33 - - 7.0 - - - - - - -
02/11:30pm 15.6 NW 21 31 - - 7.0 - - - - - - -
02/11:08pm 15.5 NW 19 30 - - 7.0 - - - - - - -
02/11:00pm 15.4 NW 20 28 - - 7.0 - - - - - - -
02/10:30pm 15.3 NW 19 26 - - 7.0 - - - - - - -
02/10:00pm 15.5 NW 21 30 - - 7.0 - - - - - - -
02/09:38pm 15.4 NW 19 31 - - 7.0 - - - - - - -
02/09:30pm 15.3 NW 20 28 - - 6.8 - - - - - - -
02/09:00pm 15.3 NW 17 24 - - 6.6 Rain - - - - - -
02/08:30pm 15.6 NW 18 26 - - 6.2 - - - - - - -
02/08:00pm 15.6 NW 20 28 - - 6.2 - - - - - - -
02/07:32pm 15.3 NW 20 31 - - 6.2 - - - - - - -
02/07:30pm 15.3 NW 19 28 - - 6.2 - - - - - - -
02/07:00pm 15.0 WNW 19 26 - - 6.2 - - - - - - -
02/06:38pm 15.3 NW 22 33 - - 6.2 - - - - - - -
02/06:30pm 15.6 NW 19 27 - - 6.2 - - - - - - -
02/06:26pm 15.5 NW 18 28 - - 6.2 - - - - - - -
02/06:00pm 15.5 NW 19 28 - - 6.2 - - - - - - -
02/05:30pm 15.5 NW 19 29 - - 6.2 - - - - - - -
02/05:00pm 15.3 NW 19 27 - - 6.2 - - - - - - -
02/04:30pm 15.0 NW 17 24 - - 6.2 - - - - - - -
02/04:00pm 15.3 NW 17 28 - - 5.6 - - - - - - -
02/03:30pm 15.9 WNW 16 25 - - 5.6 - - - - - - -
02/03:00pm 15.7 NW 15 23 - - 4.8 Recent precip. - - - - - -
02/02:30pm 16.5 NW 20 31 - - 4.6 - - - - - - -
02/02:10pm 17.2 NW 19 30 - - 4.6 - - - - - - -
02/02:00pm 16.8 WNW 19 27 - - 4.6 - - - - - - -
02/01:37pm 15.2 WNW 15 26 - - 4.6 - - - - - - -
02/01:30pm 16.3 WNW 19 26 - - 4.4 - - - - - - -
02/01:15pm 15.9 NW 17 30 - - 4.4 - - - - - - -
02/01:00pm 15.9 NW 14 18 - - 4.4 - - - - - - -
02/12:30pm 15.0 NW 19 26 - - 4.4 - - - - - - -
02/12:00pm 15.2 NW 21 32 - - 4.4 Rain - - - - - -
02/11:55am 15.1 NW 18 31 - - 4.4 - - - - - - -
02/11:30am 14.4 NW 15 23 - - 4.0 - - - - - - -
02/11:00am 14.7 NW 17 25 - - 0.8 - - - - - - -
02/10:30am 13.8 NNW 13 18 - - 0.6 - - - - - - -
02/10:00am 14.8 NNW 13 18 - - 0.0 - - - - - - -
02/09:30am 14.4 NW 17 23 - - 0.0 - - - - - - -
02/09:00am 13.3 NW 13 18 - - 5.4 - - - - - - -
02/08:30am 12.0 NW 12 18 - - 5.4 - - - - - - -
02/08:00am 12.2 WNW 12 19 - - 5.4 - - - - - - -
02/07:30am 12.7 NW 11 17 - - 4.0 - - - - - - -
02/07:00am 12.6 NW 12 15 - - 3.4 - - - - - - -
02/06:30am 11.9 NW 8 10 - - 1.8 - - - - - - -
02/06:00am 12.3 WNW 14 20 - - 1.8 Recent precip. - - - - - -
02/05:30am 12.8 NNW 11 15 - - 1.6 - - - - - - -
02/05:00am 12.4 NW 9 15 - - 1.6 - - - - - - -
02/04:30am 11.9 NW 10 16 - - 1.4 - - - - - - -
02/04:00am 11.5 NW 8 11 - - 0.2 - - - - - - -
02/03:30am 11.5 NW 12 17 - - 0.2 - - - - - - -
02/03:17am 11.8 NW 16 31 - - 0.2 - - - - - - -
02/03:14am 12.3 NW 13 31 - - 0.2 - - - - - - -
02/03:00am 12.1 NNW 7 11 - - 0.0 - - - - - - -
02/02:30am 10.7 NW 8 10 - - 0.0 - - - - - - -
02/02:00am 10.1 NW 6 9 - - 0.0 - - - - - - -
02/01:30am 10.4 NNW 6 8 - - 0.0 - - - - - - -

Other Formats:

Comma delimited format used in spreadsheet applications
http://www.bom.gov.au/fwo/IDS60701/IDS60701.94807.axf

JavaScript Object Notation format (JSON) in row-major order
http://www.bom.gov.au/fwo/IDS60701/IDS60701.94807.json